sensor_id;sensor_type;location;lat;lon;timestamp;temperature;humidity
72646;DHT22;60687;53.876;10.674;2023-08-07T00:00:59;16.30;97.10
72646;DHT22;60687;53.876;10.674;2023-08-07T00:11:06;16.30;97.60
72646;DHT22;60687;53.876;10.674;2023-08-07T00:21:09;16.20;97.80
72646;DHT22;60687;53.876;10.674;2023-08-07T00:31:13;16.10;97.30
72646;DHT22;60687;53.876;10.674;2023-08-07T00:41:16;16.00;97.20
72646;DHT22;60687;53.876;10.674;2023-08-07T00:51:20;16.00;97.20
72646;DHT22;60687;53.876;10.674;2023-08-07T01:01:23;15.90;96.30
72646;DHT22;60687;53.876;10.674;2023-08-07T01:11:34;15.90;96.20
72646;DHT22;60687;53.876;10.674;2023-08-07T01:21:39;15.80;95.80
72646;DHT22;60687;53.876;10.674;2023-08-07T01:31:45;15.70;95.60
72646;DHT22;60687;53.876;10.674;2023-08-07T01:41:50;15.70;95.20
72646;DHT22;60687;53.876;10.674;2023-08-07T01:51:54;15.60;95.10
72646;DHT22;60687;53.876;10.674;2023-08-07T02:01:56;15.60;94.90
72646;DHT22;60687;53.876;10.674;2023-08-07T02:12:00;15.50;95.00
72646;DHT22;60687;53.876;10.674;2023-08-07T02:22:03;15.50;95.20
72646;DHT22;60687;53.876;10.674;2023-08-07T02:32:07;15.50;95.10
72646;DHT22;60687;53.876;10.674;2023-08-07T02:42:10;15.40;95.30
72646;DHT22;60687;53.876;10.674;2023-08-07T02:52:14;15.40;95.40
72646;DHT22;60687;53.876;10.674;2023-08-07T03:02:16;15.30;95.40
72646;DHT22;60687;53.876;10.674;2023-08-07T03:12:20;15.30;95.60
72646;DHT22;60687;53.876;10.674;2023-08-07T03:22:23;15.20;95.90
72646;DHT22;60687;53.876;10.674;2023-08-07T03:32:27;15.20;96.20
72646;DHT22;60687;53.876;10.674;2023-08-07T03:42:30;15.20;96.70
72646;DHT22;60687;53.876;10.674;2023-08-07T03:52:34;15.10;97.20
72646;DHT22;60687;53.876;10.674;2023-08-07T04:02:36;15.10;97.80
72646;DHT22;60687;53.876;10.674;2023-08-07T04:12:40;15.10;98.30
72646;DHT22;60687;53.876;10.674;2023-08-07T04:22:43;15.10;98.70
72646;DHT22;60687;53.876;10.674;2023-08-07T04:32:48;15.20;99.30
72646;DHT22;60687;53.876;10.674;2023-08-07T04:42:51;15.20;99.90
72646;DHT22;60687;53.876;10.674;2023-08-07T04:52:54;15.20;99.90
72646;DHT22;60687;53.876;10.674;2023-08-07T05:02:57;15.30;99.70
72646;DHT22;60687;53.876;10.674;2023-08-07T05:13:00;15.40;99.90
72646;DHT22;60687;53.876;10.674;2023-08-07T05:23:03;15.40;99.90
72646;DHT22;60687;53.876;10.674;2023-08-07T05:33:07;15.50;99.90
72646;DHT22;60687;53.876;10.674;2023-08-07T05:43:09;15.60;99.90
72646;DHT22;60687;53.876;10.674;2023-08-07T05:53:13;15.70;99.90
72646;DHT22;60687;53.876;10.674;2023-08-07T06:03:15;15.80;99.90
72646;DHT22;60687;53.876;10.674;2023-08-07T06:13:19;15.90;99.90
72646;DHT22;60687;53.876;10.674;2023-08-07T06:23:21;15.90;99.50
72646;DHT22;60687;53.876;10.674;2023-08-07T06:33:25;16.00;98.90
72646;DHT22;60687;53.876;10.674;2023-08-07T06:43:27;16.10;96.50
72646;DHT22;60687;53.876;10.674;2023-08-07T06:53:31;16.20;95.10
72646;DHT22;60687;53.876;10.674;2023-08-07T07:03:33;16.30;94.90
72646;DHT22;60687;53.876;10.674;2023-08-07T07:13:38;16.30;92.90
72646;DHT22;60687;53.876;10.674;2023-08-07T07:23:40;16.40;93.00
72646;DHT22;60687;53.876;10.674;2023-08-07T07:33:44;16.50;91.90
72646;DHT22;60687;53.876;10.674;2023-08-07T07:43:47;16.60;91.20
72646;DHT22;60687;53.876;10.674;2023-08-07T07:53:51;16.70;90.90
72646;DHT22;60687;53.876;10.674;2023-08-07T08:03:53;16.80;90.00
72646;DHT22;60687;53.876;10.674;2023-08-07T08:13:57;16.90;90.40
72646;DHT22;60687;53.876;10.674;2023-08-07T08:23:59;17.00;87.90
72646;DHT22;60687;53.876;10.674;2023-08-07T08:34:06;17.10;85.20
72646;DHT22;60687;53.876;10.674;2023-08-07T08:44:10;17.20;82.20
72646;DHT22;60687;53.876;10.674;2023-08-07T08:54:17;17.30;81.90
72646;DHT22;60687;53.876;10.674;2023-08-07T09:04:19;17.40;81.40
72646;DHT22;60687;53.876;10.674;2023-08-07T09:14:27;17.50;77.40
72646;DHT22;60687;53.876;10.674;2023-08-07T09:24:31;17.80;74.80
72646;DHT22;60687;53.876;10.674;2023-08-07T09:34:38;17.80;73.90
72646;DHT22;60687;53.876;10.674;2023-08-07T09:44:44;18.00;73.40
72646;DHT22;60687;53.876;10.674;2023-08-07T09:54:57;18.20;71.40
72646;DHT22;60687;53.876;10.674;2023-08-07T10:04:59;18.30;68.90
72646;DHT22;60687;53.876;10.674;2023-08-07T10:15:07;18.20;67.60
72646;DHT22;60687;53.876;10.674;2023-08-07T10:25:09;18.20;71.00
72646;DHT22;60687;53.876;10.674;2023-08-07T10:35:24;18.20;75.90
72646;DHT22;60687;53.876;10.674;2023-08-07T10:45:28;18.40;73.70
72646;DHT22;60687;53.876;10.674;2023-08-07T10:55:43;18.70;72.20
72646;DHT22;60687;53.876;10.674;2023-08-07T11:05:46;18.40;70.60
72646;DHT22;60687;53.876;10.674;2023-08-07T11:15:50;18.00;78.80
72646;DHT22;60687;53.876;10.674;2023-08-07T11:25:54;17.60;81.60
72646;DHT22;60687;53.876;10.674;2023-08-07T11:35:59;17.50;80.30
72646;DHT22;60687;53.876;10.674;2023-08-07T11:46:03;17.70;75.60
72646;DHT22;60687;53.876;10.674;2023-08-07T11:56:08;18.00;70.80
72646;DHT22;60687;53.876;10.674;2023-08-07T12:06:11;18.30;69.10
72646;DHT22;60687;53.876;10.674;2023-08-07T12:16:18;18.30;68.50
72646;DHT22;60687;53.876;10.674;2023-08-07T12:26:22;18.00;70.50
72646;DHT22;60687;53.876;10.674;2023-08-07T12:36:27;18.20;63.80
72646;DHT22;60687;53.876;10.674;2023-08-07T12:46:29;18.20;64.40
72646;DHT22;60687;53.876;10.674;2023-08-07T12:56:34;18.40;61.60
72646;DHT22;60687;53.876;10.674;2023-08-07T13:06:37;18.50;59.70
72646;DHT22;60687;53.876;10.674;2023-08-07T13:16:40;18.50;59.70
72646;DHT22;60687;53.876;10.674;2023-08-07T13:26:44;18.50;56.80
72646;DHT22;60687;53.876;10.674;2023-08-07T13:36:50;18.40;59.30
72646;DHT22;60687;53.876;10.674;2023-08-07T13:46:52;18.50;56.70
72646;DHT22;60687;53.876;10.674;2023-08-07T13:56:55;18.70;57.80
72646;DHT22;60687;53.876;10.674;2023-08-07T14:06:58;18.60;56.80
72646;DHT22;60687;53.876;10.674;2023-08-07T14:17:04;18.40;60.40
72646;DHT22;60687;53.876;10.674;2023-08-07T14:27:07;18.00;63.30
72646;DHT22;60687;53.876;10.674;2023-08-07T14:37:11;17.90;64.80
72646;DHT22;60687;53.876;10.674;2023-08-07T14:47:16;17.80;67.80
72646;DHT22;60687;53.876;10.674;2023-08-07T14:57:23;17.70;69.40
72646;DHT22;60687;53.876;10.674;2023-08-07T15:07:26;17.70;68.20
72646;DHT22;60687;53.876;10.674;2023-08-07T15:17:30;17.80;63.40
72646;DHT22;60687;53.876;10.674;2023-08-07T15:27:32;17.60;61.00
72646;DHT22;60687;53.876;10.674;2023-08-07T15:37:36;17.50;60.30
72646;DHT22;60687;53.876;10.674;2023-08-07T15:47:38;17.60;61.40
72646;DHT22;60687;53.876;10.674;2023-08-07T15:57:42;17.50;62.20
72646;DHT22;60687;53.876;10.674;2023-08-07T16:07:44;17.50;63.70
72646;DHT22;60687;53.876;10.674;2023-08-07T16:17:49;17.40;60.60
72646;DHT22;60687;53.876;10.674;2023-08-07T16:27:51;17.30;60.00
72646;DHT22;60687;53.876;10.674;2023-08-07T16:37:55;17.20;62.90
72646;DHT22;60687;53.876;10.674;2023-08-07T16:47:57;17.20;64.00
72646;DHT22;60687;53.876;10.674;2023-08-07T16:58:02;17.20;62.90
72646;DHT22;60687;53.876;10.674;2023-08-07T17:08:05;17.10;57.90
72646;DHT22;60687;53.876;10.674;2023-08-07T17:18:09;16.90;54.30
72646;DHT22;60687;53.876;10.674;2023-08-07T17:28:12;16.80;57.40
72646;DHT22;60687;53.876;10.674;2023-08-07T17:38:17;16.70;59.90
72646;DHT22;60687;53.876;10.674;2023-08-07T17:48:21;16.70;63.00
72646;DHT22;60687;53.876;10.674;2023-08-07T17:58:24;16.60;63.40
72646;DHT22;60687;53.876;10.674;2023-08-07T18:08:27;16.50;57.90
72646;DHT22;60687;53.876;10.674;2023-08-07T18:18:31;16.40;56.60
72646;DHT22;60687;53.876;10.674;2023-08-07T18:28:34;16.20;57.40
72646;DHT22;60687;53.876;10.674;2023-08-07T18:38:39;16.10;59.60
72646;DHT22;60687;53.876;10.674;2023-08-07T18:48:42;16.10;64.80
72646;DHT22;60687;53.876;10.674;2023-08-07T18:58:46;15.90;70.70
72646;DHT22;60687;53.876;10.674;2023-08-07T19:08:49;15.80;71.20
72646;DHT22;60687;53.876;10.674;2023-08-07T19:18:53;15.80;74.30
72646;DHT22;60687;53.876;10.674;2023-08-07T19:28:55;15.70;75.90
72646;DHT22;60687;53.876;10.674;2023-08-07T19:39:01;15.70;75.90
72646;DHT22;60687;53.876;10.674;2023-08-07T19:49:04;15.70;77.00
72646;DHT22;60687;53.876;10.674;2023-08-07T19:59:09;15.60;76.90
72646;DHT22;60687;53.876;10.674;2023-08-07T20:09:11;15.60;78.00
72646;DHT22;60687;53.876;10.674;2023-08-07T20:19:15;15.50;84.30
72646;DHT22;60687;53.876;10.674;2023-08-07T20:29:18;15.30;91.80
72646;DHT22;60687;53.876;10.674;2023-08-07T20:39:22;15.10;93.20
72646;DHT22;60687;53.876;10.674;2023-08-07T20:49:24;15.00;94.60
72646;DHT22;60687;53.876;10.674;2023-08-07T20:59:28;14.80;95.40
72646;DHT22;60687;53.876;10.674;2023-08-07T21:09:31;14.70;96.20
72646;DHT22;60687;53.876;10.674;2023-08-07T21:19:35;14.70;96.70
72646;DHT22;60687;53.876;10.674;2023-08-07T21:29:38;14.70;96.70
72646;DHT22;60687;53.876;10.674;2023-08-07T21:39:42;14.60;95.80
72646;DHT22;60687;53.876;10.674;2023-08-07T21:49:44;14.60;95.90
72646;DHT22;60687;53.876;10.674;2023-08-07T21:59:48;14.50;95.40
72646;DHT22;60687;53.876;10.674;2023-08-07T22:09:50;14.50;93.90
72646;DHT22;60687;53.876;10.674;2023-08-07T22:19:54;14.50;93.40
72646;DHT22;60687;53.876;10.674;2023-08-07T22:29:56;14.50;93.00
72646;DHT22;60687;53.876;10.674;2023-08-07T22:40:01;14.50;92.60
72646;DHT22;60687;53.876;10.674;2023-08-07T22:50:05;14.50;93.10
72646;DHT22;60687;53.876;10.674;2023-08-07T23:00:10;14.50;92.50
72646;DHT22;60687;53.876;10.674;2023-08-07T23:10:13;14.50;92.80
72646;DHT22;60687;53.876;10.674;2023-08-07T23:20:18;14.40;93.80
72646;DHT22;60687;53.876;10.674;2023-08-07T23:30:20;14.30;94.50
72646;DHT22;60687;53.876;10.674;2023-08-07T23:40:24;14.30;95.10
72646;DHT22;60687;53.876;10.674;2023-08-07T23:50:26;14.20;95.30
